Hlavní strana
METAR-TAF:

METAR-TAF

Letiště :

Richmond, Virginie, Spojené státy americké

zeměpisná šířka: 37-24-24N, zeměpisná délka: 077-31-30W, výška: 72 m

Aktuální stav počasí

Zpráva byla vytvořena před 36 minutami, v 04:56 UTC
Východojihovýchodní vítr 8 kt
Teplota 12°C
Vlhkost vzduchu 94%
Tlak 1013 hPa
Viditelnost: 16.1 km
Skoro jasno ve výšce 4200 ft
Oblačno až skoro zataženo ve výšce 6000 ft
Zataženo ve výšce 7500 ft
slabý déšť

METAR: KFCI 250456Z AUTO 11008KT 10SM -RA FEW042 BKN060 OVC075 12/11 A2991 RMK AO2 RAB08E38B54 SLP142 P0000 T01170106

Čas: 00:32 (05:32 UTC)


TAF: chybějící

Stav a předpovědi počasí z více než 4 000 letišť (zprávy METAR a TAF).

Červené a žluté tečky na mapě představují dostupné meteorologické stanice.

Když kurzor umístíte na tečku, zobrazí se název stanice.

Pak kliknutím zobrazíte stav a předpověď počasí.

Chcete-li změnit mapu, kliknutím na zelené tlačítko se znaménkem +mapu přiblížíte, kliknutím na zelené tlačítko se znaménkem – mapu oddálíte a kliknutím na zelené šipky přejdete na sousední mapy.


METAR-TAF: